Time;durP1;ratioP1;P1;durP2;ratioP2;P2;SDS_P1;SDS_P2;PMS_P1;PMS_P2;Temp;Humidity;BMP_temperature;BMP_pressure;BME280_temperature;BME280_humidity;BME280_pressure;Samples;Min_cycle;Max_cycle;Signal;HPM_P1;HPM_P2
2022/05/21 00:01:27;;;;;;;9.40;4.72;;;26.30;99.90;;;;;;1845264;78;21669;-88
2022/05/21 00:03:58;;;;;;;10.48;6.17;;;26.40;99.90;;;;;;1845322;77;21168;-87
2022/05/21 00:06:29;;;;;;;8.25;4.60;;;26.40;99.90;;;;;;1845659;77;21114;-87
2022/05/21 00:09:01;;;;;;;8.30;4.40;;;26.40;99.90;;;;;;1845045;78;21108;-86
2022/05/21 00:11:32;;;;;;;8.30;5.03;;;26.40;99.90;;;;;;1845109;77;21229;-88
2022/05/21 00:14:03;;;;;;;7.15;4.37;;;26.40;99.90;;;;;;1847275;77;21149;-87
2022/05/21 00:16:34;;;;;;;7.45;4.70;;;26.40;99.90;;;;;;1845387;78;21214;-88
2022/05/21 00:19:06;;;;;;;10.65;4.87;;;26.80;99.90;;;;;;1845154;76;21593;-88
2022/05/21 00:21:37;;;;;;;9.75;4.72;;;26.40;99.90;;;;;;1845088;77;21174;-88
2022/05/21 00:24:08;;;;;;;8.68;5.25;;;26.50;99.90;;;;;;1835613;76;21132;-89
2022/05/21 00:26:40;;;;;;;7.72;4.42;;;26.50;99.90;;;;;;1848690;76;21191;-88
2022/05/21 00:29:10;;;;;;;10.90;4.70;;;26.60;99.90;;;;;;1847094;76;21145;-88
2022/05/21 00:31:42;;;;;;;8.15;4.70;;;26.50;99.90;;;;;;1845499;78;21107;-88
2022/05/21 00:34:12;;;;;;;6.25;4.17;;;26.50;99.90;;;;;;1845049;78;21137;-88
2022/05/21 00:36:43;;;;;;;6.53;4.10;;;26.60;99.90;;;;;;1845360;78;21164;-89
2022/05/21 00:39:14;;;;;;;12.65;4.90;;;26.70;99.90;;;;;;1822246;78;21076;-88
2022/05/21 00:41:46;;;;;;;10.70;5.08;;;26.50;99.90;;;;;;1845230;78;21286;-88
2022/05/21 00:44:17;;;;;;;11.80;4.92;;;26.90;99.90;;;;;;1845540;78;21253;-88
2022/05/21 00:46:49;;;;;;;9.13;5.15;;;26.70;99.90;;;;;;1845488;77;21175;-88
2022/05/21 00:49:23;;;;;;;10.82;5.97;;;26.80;99.90;;;;;;1845570;76;21736;-88
2022/05/21 00:51:54;;;;;;;10.95;5.17;;;26.90;99.90;;;;;;1832639;77;21558;-88
2022/05/21 00:54:28;;;;;;;8.95;4.92;;;26.70;99.90;;;;;;1836426;77;21243;-88
2022/05/21 00:57:01;;;;;;;5.15;4.08;;;27.00;99.90;;;;;;1842632;76;21184;-87
2022/05/21 01:02:07;;;;;;;5.83;4.35;;;26.80;99.90;;;;;;1842590;76;21233;-88
2022/05/21 01:04:38;;;;;;;9.20;4.70;;;27.20;99.90;;;;;;1841728;76;21251;-88
2022/05/21 01:07:17;;;;;;;7.22;5.25;;;26.90;99.90;;;;;;1843624;76;21068;-87
2022/05/21 01:09:48;;;;;;;9.25;4.97;;;27.00;99.90;;;;;;1777786;80;21585;-88
2022/05/21 01:12:20;;;;;;;8.88;4.50;;;27.00;99.90;;;;;;1811549;79;21194;-89
2022/05/21 01:14:52;;;;;;;8.53;4.12;;;27.10;99.90;;;;;;1769122;80;21124;-88
2022/05/21 01:17:24;;;;;;;7.83;4.42;;;27.40;99.90;;;;;;1815579;78;21480;-88
2022/05/21 01:19:58;;;;;;;7.58;4.33;;;27.30;99.90;;;;;;1815900;78;21090;-89
2022/05/21 01:22:31;;;;;;;5.47;4.60;;;27.50;99.90;;;;;;1842837;76;21166;-89
2022/05/21 01:25:02;;;;;;;10.80;4.55;;;27.30;99.90;;;;;;1840688;78;21576;-88
2022/05/21 01:27:34;;;;;;;7.83;4.05;;;27.50;99.90;;;;;;1828745;78;21161;-87
2022/05/21 01:30:07;;;;;;;8.73;4.50;;;27.50;99.90;;;;;;1774881;80;21132;-87
2022/05/21 01:32:38;;;;;;;6.90;4.28;;;27.30;99.90;;;;;;1801847;77;21189;-88
2022/05/21 01:35:12;;;;;;;7.53;4.15;;;27.40;99.90;;;;;;1841761;76;21158;-89
2022/05/21 01:37:47;;;;;;;9.45;4.05;;;27.50;99.90;;;;;;1834548;78;21174;-87
2022/05/21 01:40:19;;;;;;;7.47;4.40;;;27.50;99.90;;;;;;1831044;76;21209;-89
2022/05/21 01:45:28;;;;;;;7.17;3.80;;;27.40;99.90;;;;;;1841906;78;21116;-87
2022/05/21 01:48:02;;;;;;;7.85;4.00;;;27.50;99.90;;;;;;1838751;78;21609;-88
2022/05/21 01:50:32;;;;;;;8.43;4.22;;;27.40;99.90;;;;;;1842496;78;21198;-87
2022/05/21 01:53:04;;;;;;;10.93;4.53;;;27.60;99.90;;;;;;1847545;76;21458;-88
2022/05/21 01:55:35;;;;;;;11.22;4.65;;;27.70;99.90;;;;;;1828456;78;21039;-87
2022/05/21 01:58:06;;;;;;;9.03;4.78;;;27.70;99.90;;;;;;1847242;75;21104;-87
2022/05/21 02:00:38;;;;;;;8.43;4.53;;;27.70;99.90;;;;;;1845264;75;21128;-89
2022/05/21 02:03:10;;;;;;;7.50;4.78;;;27.60;99.90;;;;;;1824503;77;21124;-87
2022/05/21 02:05:44;;;;;;;11.20;4.85;;;27.50;99.90;;;;;;1846916;77;21167;-87
2022/05/21 02:08:16;;;;;;;8.43;4.35;;;27.50;99.90;;;;;;1848880;76;21155;-88
2022/05/21 02:10:48;;;;;;;6.83;4.37;;;27.70;99.90;;;;;;1846430;78;21139;-87
2022/05/21 02:13:21;;;;;;;8.05;4.28;;;27.50;99.90;;;;;;1846083;78;21127;-85
2022/05/21 02:15:53;;;;;;;8.93;4.45;;;27.70;99.90;;;;;;1846302;78;21138;-86
2022/05/21 02:18:25;;;;;;;9.25;4.10;;;27.50;99.90;;;;;;1845012;78;21651;-87
2022/05/21 02:21:01;;;;;;;6.22;3.65;;;27.70;99.90;;;;;;1847889;76;21201;-88
2022/05/21 02:23:31;;;;;;;15.00;4.72;;;27.40;99.90;;;;;;1840103;78;21208;-87
2022/05/21 02:26:03;;;;;;;8.40;4.35;;;27.60;99.90;;;;;;1841542;78;21143;-86
2022/05/21 02:28:33;;;;;;;10.38;4.37;;;27.60;99.90;;;;;;1852122;76;21112;-87
2022/05/21 02:31:05;;;;;;;9.30;4.37;;;27.50;99.90;;;;;;1840846;78;21118;-86
2022/05/21 02:33:36;;;;;;;6.47;3.70;;;27.40;99.90;;;;;;1842188;77;21104;-85
2022/05/21 02:36:07;;;;;;;10.55;4.50;;;27.50;99.90;;;;;;1842876;77;21104;-88
2022/05/21 02:41:13;;;;;;;8.05;4.58;;;27.60;99.90;;;;;;1834896;78;21218;-88
2022/05/21 02:43:46;;;;;;;9.85;4.60;;;27.60;99.90;;;;;;1838118;77;21137;-89
2022/05/21 02:46:17;;;;;;;9.23;4.05;;;27.60;99.90;;;;;;1840744;77;21134;-88
2022/05/21 02:48:48;;;;;;;9.65;5.00;;;27.70;99.90;;;;;;1839626;77;21277;-89
2022/05/21 02:51:19;;;;;;;7.62;4.12;;;27.70;99.90;;;;;;1844719;76;21123;-89
2022/05/21 02:53:50;;;;;;;6.30;3.83;;;27.80;99.90;;;;;;1842843;77;21253;-88
2022/05/21 02:56:21;;;;;;;8.30;4.12;;;28.00;99.90;;;;;;1838753;77;21096;-88
2022/05/21 02:58:52;;;;;;;7.50;4.10;;;27.80;99.90;;;;;;1838792;78;21739;-89
2022/05/21 03:01:23;;;;;;;12.25;4.55;;;28.00;99.90;;;;;;1841835;77;21244;-89
2022/05/21 03:03:57;;;;;;;7.75;4.20;;;28.10;99.90;;;;;;1842890;76;21655;-87
2022/05/21 03:06:28;;;;;;;6.22;3.83;;;28.30;99.90;;;;;;1837177;78;21135;-88
2022/05/21 03:11:31;;;;;;;8.58;4.25;;;28.40;99.90;;;;;;1830158;77;21127;-87
2022/05/21 03:14:01;;;;;;;6.05;4.00;;;28.30;99.90;;;;;;1805686;79;21606;-88
2022/05/21 03:16:32;;;;;;;4.15;3.30;;;28.30;99.90;;;;;;1795293;79;21143;-89
2022/05/21 03:19:04;;;;;;;5.30;3.80;;;28.50;99.90;;;;;;1801469;79;21155;-89
2022/05/21 03:21:37;;;;;;;7.78;4.40;;;28.20;99.90;;;;;;1787589;79;21156;-87
2022/05/21 03:24:08;;;;;;;9.03;3.90;;;28.50;99.90;;;;;;1788331;80;21192;-88
2022/05/21 03:26:39;;;;;;;5.62;3.25;;;28.40;99.90;;;;;;1776070;80;21106;-89
2022/05/21 03:29:09;;;;;;;6.03;3.83;;;28.10;99.90;;;;;;1811153;78;21181;-88
2022/05/21 03:31:40;;;;;;;6.80;4.20;;;28.30;99.90;;;;;;1811284;78;21241;-88
2022/05/21 03:34:11;;;;;;;7.25;3.58;;;28.20;99.90;;;;;;1823236;78;21134;-88
2022/05/21 03:36:42;;;;;;;6.08;3.00;;;28.20;99.90;;;;;;1814769;77;21147;-89
2022/05/21 03:39:13;;;;;;;7.03;3.10;;;28.20;99.90;;;;;;1809553;78;21219;-89
2022/05/21 03:41:44;;;;;;;7.40;2.85;;;28.20;99.90;;;;;;1809522;78;21148;-89
2022/05/21 03:44:15;;;;;;;5.37;3.83;;;28.40;99.90;;;;;;1811698;78;21229;-88
2022/05/21 03:46:47;;;;;;;6.75;3.10;;;28.10;99.90;;;;;;1827250;78;21159;-88
2022/05/21 03:49:18;;;;;;;7.42;3.20;;;28.20;99.90;;;;;;1809318;79;21159;-89
2022/05/21 03:51:49;;;;;;;6.08;2.92;;;28.10;99.90;;;;;;1812107;77;21261;-87
2022/05/21 03:54:20;;;;;;;6.30;3.50;;;28.20;99.90;;;;;;1797679;79;21116;-88
2022/05/21 03:56:51;;;;;;;5.87;3.00;;;28.20;99.90;;;;;;1783830;79;21157;-89
2022/05/21 03:59:22;;;;;;;4.50;2.90;;;28.20;99.90;;;;;;1780553;78;21563;-88
2022/05/21 04:01:53;;;;;;;7.33;2.95;;;28.20;99.90;;;;;;1807436;79;21223;-87
2022/05/21 04:04:24;;;;;;;7.85;4.00;;;28.10;99.90;;;;;;1808314;79;21205;-88
2022/05/21 04:06:55;;;;;;;10.08;3.15;;;28.20;99.90;;;;;;1808555;78;21610;-89
2022/05/21 04:09:28;;;;;;;8.48;3.20;;;28.20;99.90;;;;;;1808910;77;21249;-88
2022/05/21 04:12:05;;;;;;;5.37;3.35;;;28.30;99.90;;;;;;1806524;77;21184;-88
2022/05/21 04:14:36;;;;;;;7.00;3.20;;;28.20;99.90;;;;;;1760952;78;21246;-86
2022/05/21 04:17:13;;;;;;;6.60;2.83;;;28.30;99.90;;;;;;1825212;74;21103;-86
2022/05/21 04:19:43;;;;;;;6.72;3.40;;;28.30;99.90;;;;;;1843440;73;21144;-88
2022/05/21 04:22:14;;;;;;;7.12;2.92;;;28.10;99.90;;;;;;1852755;73;21278;-88
2022/05/21 04:24:45;;;;;;;7.55;2.85;;;28.40;99.90;;;;;;1847531;75;21167;-88
2022/05/21 04:27:16;;;;;;;6.95;3.17;;;28.20;99.90;;;;;;1842530;75;21569;-88
2022/05/21 04:29:47;;;;;;;9.35;3.67;;;28.20;99.90;;;;;;1814022;76;21133;-88
2022/05/21 04:32:21;;;;;;;6.58;2.83;;;28.30;99.90;;;;;;1813324;77;21108;-88
2022/05/21 04:34:54;;;;;;;6.43;2.63;;;28.40;99.90;;;;;;1838694;76;21151;-88
2022/05/21 04:37:25;;;;;;;5.78;2.55;;;28.50;99.90;;;;;;1818851;77;21257;-87
2022/05/21 04:39:56;;;;;;;5.60;2.40;;;28.50;99.90;;;;;;1838236;77;21167;-88
2022/05/21 04:42:27;;;;;;;7.08;2.50;;;28.40;99.90;;;;;;1837842;77;21092;-89
2022/05/21 04:44:59;;;;;;;7.65;1.90;;;28.50;99.90;;;;;;1820598;77;21231;-88
2022/05/21 04:47:31;;;;;;;6.97;2.40;;;28.80;99.90;;;;;;1814025;78;21127;-87
2022/05/21 04:50:04;;;;;;;6.12;1.92;;;28.80;99.90;;;;;;1822732;78;21092;-87
2022/05/21 04:52:37;;;;;;;4.97;2.40;;;28.90;99.90;;;;;;1821924;78;21186;-89
2022/05/21 04:55:10;;;;;;;5.10;2.60;;;29.20;99.90;;;;;;1822469;78;21700;-87
2022/05/21 04:57:41;;;;;;;5.42;2.25;;;29.10;99.90;;;;;;1836305;77;21136;-88
2022/05/21 05:00:17;;;;;;;5.70;2.02;;;29.20;99.90;;;;;;1840347;77;21111;-87
2022/05/21 05:02:49;;;;;;;5.60;1.98;;;29.40;99.90;;;;;;1774988;79;21173;-88
2022/05/21 05:05:20;;;;;;;5.78;1.80;;;29.40;99.90;;;;;;1820785;78;21188;-88
2022/05/21 05:07:52;;;;;;;5.37;2.10;;;29.10;99.90;;;;;;1839051;77;21147;-88
2022/05/21 05:10:24;;;;;;;5.53;2.37;;;29.20;99.90;;;;;;1779660;80;21084;-88
2022/05/21 05:12:55;;;;;;;4.67;2.15;;;29.30;99.90;;;;;;1827738;77;21175;-88
2022/05/21 05:15:26;;;;;;;4.60;1.98;;;29.10;99.90;;;;;;1841749;77;21120;-88
2022/05/21 05:17:59;;;;;;;4.78;2.20;;;29.20;99.90;;;;;;1848561;76;21143;-88
2022/05/21 05:20:31;;;;;;;6.78;2.67;;;29.10;99.90;;;;;;1785073;79;21170;-88
2022/05/21 05:23:02;;;;;;;5.20;2.40;;;29.00;99.90;;;;;;1802443;78;21112;-87
2022/05/21 05:25:35;;;;;;;3.25;1.87;;;29.20;99.90;;;;;;1820091;78;21165;-88
2022/05/21 05:28:07;;;;;;;6.90;2.10;;;29.00;99.90;;;;;;1808778;79;21096;-88
2022/05/21 05:30:40;;;;;;;5.35;1.98;;;29.10;99.90;;;;;;1850213;77;21141;-89
2022/05/21 05:33:11;;;;;;;5.72;2.00;;;29.10;99.90;;;;;;1823682;79;21592;-88
2022/05/21 05:35:43;;;;;;;5.87;2.50;;;29.10;99.90;;;;;;1831644;76;21126;-88
2022/05/21 05:38:15;;;;;;;6.78;2.25;;;29.10;99.90;;;;;;1836913;78;21134;-87
2022/05/21 05:40:50;;;;;;;5.30;2.17;;;28.90;99.90;;;;;;1860305;77;21166;-88
2022/05/21 05:43:34;;;;;;;5.62;2.30;;;28.90;99.90;;;;;;1853318;77;21081;-89
2022/05/21 05:46:06;;;;;;;6.97;2.62;;;29.20;99.90;;;;;;1842299;76;21120;-87
2022/05/21 05:48:40;;;;;;;5.05;2.62;;;29.10;99.90;;;;;;1842852;78;21148;-88
2022/05/21 05:51:11;;;;;;;3.90;2.10;;;29.30;99.90;;;;;;1842769;78;21216;-88
2022/05/21 05:53:42;;;;;;;4.50;1.92;;;29.50;99.90;;;;;;1842890;78;21131;-88
2022/05/21 05:56:13;;;;;;;7.90;1.77;;;29.70;99.90;;;;;;1842957;78;21658;-87
2022/05/21 06:01:17;;;;;;;3.92;1.80;;;29.90;99.90;;;;;;1841299;78;21519;-89
2022/05/21 06:03:48;;;;;;;8.13;2.35;;;29.90;99.90;;;;;;1842741;78;21184;-89
2022/05/21 06:06:21;;;;;;;4.03;1.95;;;29.90;99.90;;;;;;1843751;78;21781;-89
2022/05/21 06:08:55;;;;;;;7.87;2.20;;;29.90;99.90;;;;;;1812757;78;21186;-87
2022/05/21 06:11:25;;;;;;;7.12;2.37;;;30.10;99.90;;;;;;1827157;78;21106;-88
2022/05/21 06:13:57;;;;;;;5.20;2.20;;;30.10;99.90;;;;;;1838281;78;21220;-87
2022/05/21 06:16:28;;;;;;;6.47;2.30;;;29.90;99.90;;;;;;1832181;78;21114;-88
2022/05/21 06:18:59;;;;;;;4.22;2.20;;;30.00;99.90;;;;;;1840038;78;21157;-88
2022/05/21 06:21:30;;;;;;;5.58;2.22;;;30.00;99.90;;;;;;1841042;78;21107;-88
2022/05/21 06:24:01;;;;;;;4.40;2.50;;;29.90;99.90;;;;;;1836424;78;21643;-88
2022/05/21 06:26:32;;;;;;;5.00;2.65;;;29.80;99.90;;;;;;1812663;78;21105;-89
2022/05/21 06:29:03;;;;;;;8.78;2.70;;;30.10;99.90;;;;;;1849895;77;21163;-88
2022/05/21 06:31:35;;;;;;;4.42;2.47;;;30.10;99.90;;;;;;1851031;77;21158;-89
2022/05/21 06:34:06;;;;;;;6.90;1.98;;;30.20;99.90;;;;;;1837809;77;21100;-89
2022/05/21 06:36:38;;;;;;;5.90;2.20;;;30.10;99.90;;;;;;1831219;77;21691;-87
2022/05/21 06:39:09;;;;;;;4.53;2.17;;;30.10;99.90;;;;;;1833722;77;21181;-88
2022/05/21 06:41:40;;;;;;;5.50;3.40;;;30.30;99.90;;;;;;1839473;77;21513;-87
2022/05/21 06:44:10;;;;;;;3.55;2.17;;;30.30;99.90;;;;;;1840506;77;21255;-88
2022/05/21 06:46:41;;;;;;;5.25;2.77;;;30.30;99.90;;;;;;1834173;77;21156;-88
2022/05/21 06:49:12;;;;;;;5.50;2.47;;;30.60;99.90;;;;;;1843705;77;21577;-89
2022/05/21 06:51:43;;;;;;;7.45;3.12;;;30.60;99.90;;;;;;1771373;80;21772;-88
2022/05/21 06:54:14;;;;;;;3.72;2.20;;;;;;;;;;1778458;80;21101;-87
2022/05/21 06:56:45;;;;;;;4.08;2.37;;;31.20;99.90;;;;;;1768594;81;21121;-87
2022/05/21 06:59:16;;;;;;;3.87;2.35;;;30.80;99.90;;;;;;1800123;79;21259;-87
2022/05/21 07:01:47;;;;;;;6.20;2.55;;;30.80;99.90;;;;;;1789240;79;21161;-88
2022/05/21 07:07:32;;;;;;;6.22;2.55;;;30.80;99.90;;;;;;1791998;80;21307;-87
2022/05/21 07:09:23;;;;;;;5.20;2.67;;;30.80;99.90;;;;;;1829359;78;21098;-87
2022/05/21 07:11:54;;;;;;;6.78;2.42;;;30.80;99.90;;;;;;1834689;77;21645;-87
2022/05/21 07:14:25;;;;;;;12.03;2.45;;;30.80;99.90;;;;;;1830479;78;21133;-89
2022/05/21 07:16:57;;;;;;;3.92;2.35;;;30.80;99.90;;;;;;1837939;77;21055;-88
2022/05/21 07:19:28;;;;;;;5.45;2.65;;;30.90;99.90;;;;;;1844990;78;21653;-89
2022/05/21 07:21:59;;;;;;;6.25;2.20;;;;;;;;;;1845015;76;21656;-90
2022/05/21 07:24:30;;;;;;;5.33;2.65;;;30.90;99.90;;;;;;1837711;78;21643;-89
2022/05/21 07:27:02;;;;;;;6.03;2.80;;;31.40;99.90;;;;;;1824871;76;21072;-89
2022/05/21 07:29:32;;;;;;;4.55;2.27;;;31.20;99.90;;;;;;1819846;77;21724;-89
2022/05/21 07:32:05;;;;;;;8.43;2.87;;;31.50;99.90;;;;;;1802875;77;21120;-87
2022/05/21 07:34:36;;;;;;;5.80;2.50;;;31.30;99.90;;;;;;1823685;77;21378;-87
2022/05/21 07:37:06;;;;;;;5.72;2.58;;;31.20;99.90;;;;;;1798014;76;21182;-88
2022/05/21 07:39:38;;;;;;;6.50;2.40;;;31.60;99.90;;;;;;1818941;76;21146;-87
2022/05/21 07:42:12;;;;;;;4.75;2.20;;;30.90;99.90;;;;;;1829918;75;21713;-87
2022/05/21 07:44:44;;;;;;;4.03;2.08;;;31.10;99.90;;;;;;1818326;78;21100;-87
2022/05/21 07:47:15;;;;;;;6.55;2.80;;;30.80;99.90;;;;;;1780409;80;21170;-88
2022/05/21 07:49:46;;;;;;;4.92;2.45;;;30.90;99.90;;;;;;1787400;80;21194;-88
2022/05/21 07:52:17;;;;;;;5.85;2.12;;;31.00;99.90;;;;;;1780772;80;21238;-88
2022/05/21 07:54:48;;;;;;;5.97;2.37;;;30.80;99.90;;;;;;1769108;79;21080;-88
2022/05/21 07:57:20;;;;;;;6.28;2.25;;;30.90;99.90;;;;;;1785282;78;21159;-89
2022/05/21 07:59:51;;;;;;;3.92;2.00;;;31.30;99.90;;;;;;1780072;80;21222;-90
2022/05/21 08:02:22;;;;;;;5.08;1.92;;;31.10;99.90;;;;;;1783628;80;21175;-88
2022/05/21 08:04:53;;;;;;;3.17;2.00;;;31.10;99.90;;;;;;1795640;79;21596;-88
2022/05/21 08:07:24;;;;;;;4.10;2.12;;;31.40;99.90;;;;;;1792320;79;21600;-88
2022/05/21 08:09:55;;;;;;;4.42;2.55;;;31.50;99.90;;;;;;1777579;80;21221;-87
2022/05/21 08:12:26;;;;;;;6.47;2.83;;;31.20;99.90;;;;;;1780027;80;21238;-89
2022/05/21 08:14:58;;;;;;;3.87;2.12;;;31.20;99.90;;;;;;1818338;79;21068;-89
2022/05/21 08:17:29;;;;;;;5.17;2.30;;;31.30;99.90;;;;;;1822590;77;21898;-89
2022/05/21 08:20:00;;;;;;;6.85;2.58;;;31.00;99.90;;;;;;1809326;78;21584;-90
2022/05/21 08:27:36;;;;;;;5.03;2.33;;;31.10;99.90;;;;;;1812027;77;21179;-89
2022/05/21 08:30:08;;;;;;;3.20;2.30;;;31.00;99.90;;;;;;1815899;78;21621;-88
2022/05/21 08:32:39;;;;;;;5.40;2.65;;;31.20;99.90;;;;;;1810437;78;21143;-89
2022/05/21 08:35:10;;;;;;;5.80;2.52;;;31.00;99.90;;;;;;1810483;79;21137;-89
2022/05/21 08:37:44;;;;;;;7.17;3.05;;;31.00;99.90;;;;;;1809851;78;21171;-88
2022/05/21 08:40:18;;;;;;;6.70;2.30;;;31.00;99.90;;;;;;1806919;79;21187;-87
2022/05/21 08:42:51;;;;;;;5.97;2.37;;;30.80;99.90;;;;;;1802921;79;21096;-89
2022/05/21 08:45:25;;;;;;;6.37;2.10;;;31.10;99.90;;;;;;1812462;78;21245;-89
2022/05/21 08:47:58;;;;;;;6.00;2.60;;;31.00;99.90;;;;;;1816192;78;21119;-88
2022/05/21 08:50:34;;;;;;;3.90;2.30;;;30.60;99.90;;;;;;1810598;79;21163;-88
2022/05/21 08:53:06;;;;;;;4.55;2.08;;;30.90;99.90;;;;;;1811031;79;21203;-88
2022/05/21 08:55:39;;;;;;;9.90;2.75;;;30.90;99.90;;;;;;1810849;79;21076;-88
2022/05/21 08:58:12;;;;;;;5.33;2.20;;;30.60;99.90;;;;;;1811095;78;21163;-87
2022/05/21 09:00:46;;;;;;;5.03;2.22;;;30.50;99.90;;;;;;1811802;79;21263;-87
2022/05/21 09:03:20;;;;;;;5.75;2.33;;;30.50;99.90;;;;;;1836697;72;21163;-88
2022/05/21 09:05:53;;;;;;;5.20;2.15;;;30.60;99.90;;;;;;1977387;72;21130;-90
2022/05/21 09:08:28;;;;;;;;;;;30.40;99.90;;;;;;1978875;71;21052;-87
2022/05/21 09:11:06;;;;;;;6.80;2.50;;;30.40;99.90;;;;;;1962240;72;20228;-87
2022/05/21 09:13:36;;;;;;;5.67;2.85;;;30.40;99.90;;;;;;1962232;73;21209;-86
2022/05/21 09:18:41;;;;;;;7.50;3.42;;;30.70;99.90;;;;;;1948075;71;21124;-89
2022/05/21 09:21:14;;;;;;;5.15;2.62;;;30.20;99.90;;;;;;1964361;71;21091;-88
2022/05/21 09:23:47;;;;;;;5.00;2.67;;;30.20;99.90;;;;;;1952105;73;21410;-89
2022/05/21 09:26:20;;;;;;;5.62;3.05;;;30.40;99.90;;;;;;1950706;71;21111;-86
2022/05/21 09:28:52;;;;;;;5.37;3.40;;;29.90;99.90;;;;;;1962456;71;21178;-89
2022/05/21 09:31:26;;;;;;;7.17;4.00;;;29.70;99.90;;;;;;1943155;71;21128;-88
2022/05/21 09:34:00;;;;;;;7.75;4.78;;;29.60;99.90;;;;;;1930150;71;21109;-88
2022/05/21 09:36:34;;;;;;;12.05;5.87;;;29.40;99.90;;;;;;1946680;73;21202;-88
2022/05/21 09:39:05;;;;;;;8.53;5.40;;;29.20;99.90;;;;;;1961436;71;21051;-88
2022/05/21 09:41:38;;;;;;;7.33;5.15;;;28.90;99.90;;;;;;1935739;73;21148;-88
2022/05/21 09:46:49;;;;;;;7.97;5.33;;;28.70;99.90;;;;;;1928203;73;21134;-89
2022/05/21 09:49:22;;;;;;;10.32;5.28;;;28.60;99.90;;;;;;1904014;73;21081;-87
2022/05/21 09:51:57;;;;;;;8.60;4.67;;;28.70;99.90;;;;;;1892015;75;21098;-88
2022/05/21 09:54:34;;;;;;;8.28;4.25;;;28.50;99.90;;;;;;1955415;73;21065;-87
2022/05/21 09:57:11;;;;;;;6.47;4.53;;;28.30;99.90;;;;;;1976312;72;21068;-87
2022/05/21 09:59:43;;;;;;;10.43;4.33;;;28.40;99.90;;;;;;1964362;72;21371;-87
2022/05/21 10:02:22;;;;;;;8.13;4.22;;;28.10;99.90;;;;;;1950071;72;21179;-88
2022/05/21 10:04:52;;;;;;;10.50;4.45;;;28.00;99.90;;;;;;1911401;73;21155;-87
2022/05/21 10:13:22;;;;;;;8.48;2.20;;;27.30;99.90;;;;;;1832361;72;21532;-87
2022/05/21 10:15:56;;;;;;;5.20;2.65;;;27.10;99.90;;;;;;1953722;72;21242;-86
2022/05/21 10:18:33;;;;;;;19.05;2.98;;;27.20;99.90;;;;;;1954623;73;21552;-88
2022/05/21 10:21:09;;;;;;;4.85;2.08;;;26.80;99.90;;;;;;1956574;72;21305;-89
2022/05/21 10:23:42;;;;;;;5.67;2.25;;;26.70;99.90;;;;;;1931422;72;21138;-90
2022/05/21 10:26:14;;;;;;;3.50;1.47;;;26.50;99.90;;;;;;1948900;73;21133;-88
2022/05/21 10:28:48;;;;;;;4.12;1.40;;;;;;;;;;1949493;73;21145;-88
2022/05/21 10:31:25;;;;;;;2.80;1.30;;;26.20;99.90;;;;;;1948126;73;21145;-87
2022/05/21 10:33:56;;;;;;;5.33;1.75;;;;;;;;;;1950110;72;22126;-90
2022/05/21 10:36:28;;;;;;;4.00;1.60;;;25.40;99.90;;;;;;1949590;73;21089;-88
2022/05/21 10:39:00;;;;;;;4.03;1.40;;;25.30;99.90;;;;;;1949591;73;21105;-89
2022/05/21 10:41:55;;;;;;;6.00;1.87;;;25.20;99.90;;;;;;1949578;72;21156;-88
2022/05/21 10:44:48;;;;;;;4.05;2.17;;;25.10;99.90;;;;;;1955971;72;21171;-89
2022/05/21 10:47:21;;;;;;;6.42;2.60;;;24.80;99.90;;;;;;1954038;73;21081;-88
2022/05/21 10:49:56;;;;;;;5.78;3.20;;;24.80;99.90;;;;;;1956438;72;21109;-89
2022/05/21 10:52:33;;;;;;;4.87;2.83;;;24.90;99.90;;;;;;1982424;72;21341;-87
2022/05/21 10:55:12;;;;;;;5.40;2.50;;;25.10;99.90;;;;;;1990739;72;21209;-88
2022/05/21 10:57:44;;;;;;;5.37;2.77;;;24.80;99.90;;;;;;1995295;71;21150;-88
2022/05/21 11:00:18;;;;;;;9.53;3.22;;;;;;;;;;1962821;72;21043;-88
2022/05/21 11:02:53;;;;;;;7.28;3.50;;;23.60;99.90;;;;;;1967942;72;21033;-88
2022/05/21 11:05:27;;;;;;;8.05;4.42;;;24.70;99.90;;;;;;1988166;72;21017;-87
2022/05/21 11:08:01;;;;;;;6.22;3.80;;;25.10;99.90;;;;;;1989471;72;21154;-87
2022/05/21 11:10:36;;;;;;;6.50;3.92;;;;;;;;;;1995122;72;21133;-89
2022/05/21 11:13:09;;;;;;;6.05;3.40;;;24.40;99.90;;;;;;1991183;72;21088;-87
2022/05/21 11:15:42;;;;;;;7.45;3.27;;;24.40;99.90;;;;;;1985179;72;21468;-87
2022/05/21 11:18:16;;;;;;;6.05;2.75;;;24.40;99.90;;;;;;1958645;72;21166;-86
2022/05/21 11:20:52;;;;;;;5.35;2.85;;;24.50;99.90;;;;;;1953904;73;21161;-87
2022/05/21 11:23:25;;;;;;;6.42;3.20;;;24.70;99.90;;;;;;1950942;72;21237;-87
2022/05/21 11:26:06;;;;;;;6.58;2.50;;;23.20;99.90;;;;;;1948827;72;21639;-86
2022/05/21 11:28:36;;;;;;;4.45;1.87;;;24.60;99.90;;;;;;1946267;73;21082;-86
2022/05/21 11:31:13;;;;;;;3.12;1.80;;;24.60;99.90;;;;;;1947787;73;21152;-87
2022/05/21 11:39:00;;;;;;;5.42;2.05;;;24.70;99.90;;;;;;1951017;72;21139;-87
2022/05/21 11:41:35;;;;;;;5.05;2.15;;;24.60;99.90;;;;;;1965008;72;21222;-87
2022/05/21 11:47:20;;;;;;;3.52;1.47;;;24.80;99.90;;;;;;1919010;73;21105;-87
2022/05/21 11:50:11;;;;;;;3.42;1.70;;;25.00;99.90;;;;;;1921618;74;21257;-86
2022/05/21 11:53:04;;;;;;;4.92;1.95;;;25.00;99.90;;;;;;1917601;73;21129;-87
2022/05/21 11:55:59;;;;;;;7.22;2.87;;;24.80;99.90;;;;;;1935129;72;21207;-88
2022/05/21 11:58:50;;;;;;;3.33;1.70;;;24.60;99.90;;;;;;1961819;72;21181;-87
2022/05/21 12:01:41;;;;;;;4.20;1.90;;;;;;;;;;1984828;72;21201;-88
2022/05/21 12:04:23;;;;;;;4.42;1.95;;;24.60;99.90;;;;;;1933749;73;21202;-88
2022/05/21 12:06:55;;;;;;;3.50;1.82;;;;;;;;;;1950866;73;21162;-88
2022/05/21 12:09:31;;;;;;;5.22;2.00;;;24.50;99.90;;;;;;1932169;73;21184;-86
2022/05/21 12:12:03;;;;;;;5.25;1.70;;;;;;;;;;1920934;75;21201;-87
2022/05/21 12:14:35;;;;;;;4.83;1.85;;;;;;;;;;1920759;75;21249;-87
2022/05/21 12:17:08;;;;;;;3.25;1.65;;;;;;;;;;1918210;74;21180;-87
2022/05/21 12:19:42;;;;;;;3.92;1.98;;;24.60;99.90;;;;;;1919411;73;21661;-88
2022/05/21 12:22:14;;;;;;;4.95;2.35;;;;;;;;;;1939611;73;21115;-87
2022/05/21 12:24:45;;;;;;;4.92;1.90;;;;;;;;;;1920740;73;21112;-86
2022/05/21 12:27:22;;;;;;;5.78;1.90;;;24.50;99.90;;;;;;1909566;75;21138;-87
2022/05/21 12:29:57;;;;;;;3.40;1.92;;;24.60;99.90;;;;;;1943203;73;21193;-86
2022/05/21 12:32:34;;;;;;;6.58;2.10;;;;;;;;;;1882161;75;21104;-88
2022/05/21 12:35:02;;;;;;;5.12;2.45;;;;;;;;;;1912868;75;21141;-87
2022/05/21 12:37:35;;;;;;;5.37;2.20;;;;;;;;;;1870297;75;21141;-86
2022/05/21 12:40:07;;;;;;;5.72;2.33;;;;;;;;;;1905518;74;21235;-86
2022/05/21 12:42:39;;;;;;;4.75;2.00;;;;;;;;;;1867326;75;21152;-86
2022/05/21 12:45:14;;;;;;;4.72;1.70;;;;;;;;;;1900792;75;21170;-87
2022/05/21 12:47:45;;;;;;;7.42;2.05;;;24.60;99.90;;;;;;1918385;74;21182;-86
2022/05/21 12:50:21;;;;;;;6.08;1.77;;;25.00;99.90;;;;;;1948381;72;21154;-87
2022/05/21 12:52:54;;;;;;;3.98;1.72;;;;;;;;;;1910023;73;21128;-88
2022/05/21 12:55:27;;;;;;;4.30;1.62;;;;;;;;;;1944243;71;21021;-86
2022/05/21 12:58:02;;;;;;;3.83;1.60;;;;;;;;;;1919407;71;21096;-87
2022/05/21 13:00:40;;;;;;;3.95;1.98;;;;;;;;;;1860181;74;21135;-88
2022/05/21 13:03:16;;;;;;;3.85;1.82;;;;;;;;;;1870702;75;21657;-88
2022/05/21 13:05:46;;;;;;;8.38;2.50;;;;;;;;;;1924352;73;21082;-86
2022/05/21 13:08:20;;;;;;;5.90;2.20;;;;;;;;;;1891635;75;21481;-88
2022/05/21 13:10:53;;;;;;;7.25;2.55;;;;;;;;;;1927946;73;21077;-88
2022/05/21 13:13:25;;;;;;;6.12;2.35;;;;;;;;;;1894453;76;21089;-88
2022/05/21 13:16:10;;;;;;;4.45;1.90;;;;;;;;;;1910867;72;21119;-87
2022/05/21 13:18:47;;;;;;;5.08;1.98;;;;;;;;;;1932701;72;21155;-88
2022/05/21 13:21:19;;;;;;;6.40;2.17;;;;;;;;;;1925519;72;21161;-88
2022/05/21 13:23:51;;;;;;;4.65;1.65;;;;;;;;;;1916250;72;21125;-87
2022/05/21 13:26:25;;;;;;;3.17;1.70;;;;;;;;;;1941944;72;21132;-88
2022/05/21 13:29:00;;;;;;;4.17;1.82;;;;;;;;;;1926752;72;21684;-87
2022/05/21 13:31:35;;;;;;;2.70;1.50;;;;;;;;;;1914396;72;21221;-86
2022/05/21 13:34:06;;;;;;;3.30;2.05;;;;;;;;;;1874581;75;21141;-87
2022/05/21 13:36:43;;;;;;;;;;;25.10;99.90;;;;;;1859082;74;21115;-87
2022/05/21 13:39:16;;;;;;;3.83;1.85;;;25.10;99.90;;;;;;1916490;74;20236;-87
2022/05/21 13:41:53;;;;;;;4.37;2.22;;;25.20;99.90;;;;;;1921351;73;21164;-87
2022/05/21 13:44:25;;;;;;;4.33;2.40;;;25.40;99.90;;;;;;1972131;72;21187;-87
2022/05/21 13:46:58;;;;;;;6.47;2.33;;;25.20;99.90;;;;;;1930689;72;21591;-87
2022/05/21 13:49:33;;;;;;;5.35;2.67;;;25.10;99.90;;;;;;1935093;74;21217;-87
2022/05/21 13:52:06;;;;;;;2.75;1.95;;;25.10;99.90;;;;;;1929568;74;21223;-87
2022/05/21 13:54:41;;;;;;;4.50;2.30;;;25.30;99.90;;;;;;1930350;72;21130;-87
2022/05/21 13:57:13;;;;;;;5.15;2.60;;;25.10;99.90;;;;;;1930462;72;21119;-87
2022/05/21 13:59:47;;;;;;;5.35;2.58;;;25.30;99.90;;;;;;1928377;72;21801;-87
2022/05/21 14:02:22;;;;;;;7.55;2.60;;;25.30;99.90;;;;;;1923006;72;21118;-87
2022/05/21 14:04:56;;;;;;;4.92;2.27;;;25.20;99.90;;;;;;1930325;74;21153;-87
2022/05/21 14:07:30;;;;;;;8.15;2.52;;;25.10;99.90;;;;;;1943712;72;21068;-87